CES7866 ZYHB-ZJSY
Flight info
| Callsign | CES7866 |
|---|---|
| Flight time | N/A |
| Altitude | 36100 |
| Route | LEGAG W204 RUSBO G212 VYK W37 IPNIT W4 WXI V54 DOSKU W56 UPMAT W82 GOSMA R343 ENKUS W120 IVPUB W159 BHY W70 NYB G221 UPRIS |
| Aircraft | B738/L-SDE3FGHIRWY/LB1 |
Departure
| Time | N/A |
|---|---|
| Airport | Harbin Taiping International Airport (ZYHB) |
Arrival
| Time | 2026-05-05 11:23 |
|---|---|
| Airport | Sanya Phoenix International Airport (ZJSY) |
| Time | Latitude | Longitude | Altitude | Speed | Heading |
|---|---|---|---|---|---|
| 2026-05-05 10:01 | 26.40142 | 111.04942 | 36136 ft | 447 kts | 220° |
| 2026-05-05 10:01 | 26.38388 | 111.03744 | 36136 ft | 446 kts | 220° |
| 2026-05-05 10:01 | 26.33096 | 111.00152 | 36129 ft | 442 kts | 220° |
| 2026-05-05 10:02 | 26.27857 | 110.96590 | 36129 ft | 443 kts | 220° |
| 2026-05-05 10:02 | 26.22568 | 110.92996 | 36127 ft | 447 kts | 220° |
| 2026-05-05 10:03 | 26.17265 | 110.89393 | 36137 ft | 445 kts | 220° |
| 2026-05-05 10:03 | 26.11987 | 110.85823 | 36152 ft | 444 kts | 220° |
| 2026-05-05 10:04 | 26.06685 | 110.82228 | 36176 ft | 446 kts | 220° |
| 2026-05-05 10:04 | 26.00542 | 110.78063 | 36206 ft | 443 kts | 220° |
| 2026-05-05 10:05 | 25.96173 | 110.75098 | 36221 ft | 441 kts | 220° |
| 2026-05-05 10:05 | 25.90919 | 110.71534 | 36206 ft | 443 kts | 220° |
| 2026-05-05 10:06 | 25.85645 | 110.67958 | 36184 ft | 445 kts | 220° |
| 2026-05-05 10:06 | 25.80372 | 110.64394 | 36162 ft | 442 kts | 220° |
| 2026-05-05 10:07 | 25.74271 | 110.60266 | 36149 ft | 441 kts | 221° |
| 2026-05-05 10:07 | 25.69048 | 110.56644 | 36152 ft | 443 kts | 221° |
| 2026-05-05 10:08 | 25.64673 | 110.53599 | 36159 ft | 444 kts | 221° |
| 2026-05-05 10:08 | 25.59464 | 110.49992 | 36170 ft | 443 kts | 221° |
| 2026-05-05 10:09 | 25.53367 | 110.45696 | 36176 ft | 443 kts | 222° |
| 2026-05-05 10:09 | 25.48260 | 110.41889 | 36174 ft | 442 kts | 222° |
| 2026-05-05 10:10 | 25.43187 | 110.38152 | 36159 ft | 441 kts | 222° |
| 2026-05-05 10:10 | 25.38912 | 110.34978 | 36149 ft | 442 kts | 222° |
| 2026-05-05 10:11 | 25.32947 | 110.30531 | 36140 ft | 443 kts | 222° |
| 2026-05-05 10:11 | 25.28684 | 110.27356 | 36133 ft | 444 kts | 222° |
| 2026-05-05 10:12 | 25.22713 | 110.22923 | 36128 ft | 444 kts | 222° |
| 2026-05-05 10:12 | 25.17608 | 110.19125 | 36129 ft | 441 kts | 222° |
| 2026-05-05 10:13 | 25.13384 | 110.15964 | 36129 ft | 440 kts | 222° |
| 2026-05-05 10:13 | 25.08296 | 110.12166 | 36129 ft | 443 kts | 222° |
| 2026-05-05 10:14 | 25.02368 | 110.07749 | 36129 ft | 443 kts | 222° |
| 2026-05-05 10:14 | 24.98091 | 110.04562 | 36126 ft | 443 kts | 221° |
| 2026-05-05 10:15 | 24.92976 | 110.00761 | 36130 ft | 444 kts | 221° |
| 2026-05-05 10:15 | 24.87889 | 109.96980 | 36133 ft | 443 kts | 221° |
| 2026-05-05 10:16 | 24.82757 | 109.93178 | 36143 ft | 442 kts | 221° |
| 2026-05-05 10:16 | 24.76811 | 109.88766 | 36140 ft | 444 kts | 221° |
| 2026-05-05 10:17 | 24.72512 | 109.85586 | 36143 ft | 444 kts | 221° |
| 2026-05-05 10:17 | 24.67067 | 109.82260 | 36129 ft | 456 kts | 208° |
| 2026-05-05 10:18 | 24.60790 | 109.80662 | 36139 ft | 470 kts | 198° |
| 2026-05-05 10:18 | 24.54326 | 109.79362 | 36130 ft | 470 kts | 199° |
| 2026-05-05 10:19 | 24.47909 | 109.78030 | 36117 ft | 469 kts | 198° |
| 2026-05-05 10:19 | 24.41523 | 109.76731 | 36118 ft | 467 kts | 198° |
| 2026-05-05 10:20 | 24.35076 | 109.75416 | 36128 ft | 469 kts | 198° |
| 2026-05-05 10:20 | 24.28663 | 109.74114 | 36126 ft | 469 kts | 198° |
| 2026-05-05 10:21 | 24.22258 | 109.72816 | 36122 ft | 468 kts | 198° |
| 2026-05-05 10:21 | 24.15849 | 109.71521 | 36123 ft | 470 kts | 198° |
| 2026-05-05 10:22 | 24.09394 | 109.70225 | 36124 ft | 470 kts | 198° |
| 2026-05-05 10:22 | 24.01951 | 109.68726 | 36127 ft | 466 kts | 198° |
| 2026-05-05 10:23 | 23.95558 | 109.67438 | 36127 ft | 468 kts | 198° |
| 2026-05-05 10:23 | 23.90227 | 109.66363 | 36128 ft | 471 kts | 197° |
| 2026-05-05 10:24 | 23.83727 | 109.65058 | 36136 ft | 471 kts | 197° |
| 2026-05-05 10:24 | 23.77291 | 109.63771 | 36128 ft | 469 kts | 197° |
| 2026-05-05 10:25 | 23.70901 | 109.62492 | 36133 ft | 467 kts | 197° |
| 2026-05-05 10:25 | 23.64500 | 109.61206 | 36122 ft | 469 kts | 197° |
| 2026-05-05 10:26 | 23.56967 | 109.59699 | 36125 ft | 469 kts | 197° |
| 2026-05-05 10:26 | 23.51706 | 109.58646 | 36126 ft | 468 kts | 197° |
| 2026-05-05 10:27 | 23.45213 | 109.57352 | 36123 ft | 469 kts | 197° |
| 2026-05-05 10:27 | 23.38825 | 109.56075 | 36136 ft | 470 kts | 197° |
| 2026-05-05 10:28 | 23.32347 | 109.54783 | 36134 ft | 470 kts | 197° |
| 2026-05-05 10:28 | 23.26019 | 109.53521 | 36139 ft | 467 kts | 197° |
| 2026-05-05 10:29 | 23.19597 | 109.52245 | 36144 ft | 468 kts | 197° |
| 2026-05-05 10:29 | 23.13183 | 109.50966 | 36129 ft | 470 kts | 197° |
| 2026-05-05 10:30 | 23.06729 | 109.49686 | 36125 ft | 470 kts | 197° |
| 2026-05-05 10:30 | 23.00271 | 109.48404 | 36118 ft | 468 kts | 197° |
| 2026-05-05 10:31 | 22.92806 | 109.46925 | 36116 ft | 468 kts | 197° |
| 2026-05-05 10:31 | 22.87413 | 109.45861 | 36118 ft | 470 kts | 197° |
| 2026-05-05 10:32 | 22.80981 | 109.44589 | 36118 ft | 470 kts | 197° |
| 2026-05-05 10:32 | 22.74552 | 109.43317 | 36118 ft | 470 kts | 197° |
| 2026-05-05 10:33 | 22.68087 | 109.42041 | 36122 ft | 470 kts | 196° |
| 2026-05-05 10:33 | 22.61660 | 109.40773 | 36125 ft | 470 kts | 196° |
| 2026-05-05 10:34 | 22.55211 | 109.39503 | 36123 ft | 471 kts | 196° |
| 2026-05-05 10:34 | 22.47677 | 109.38021 | 36128 ft | 471 kts | 196° |
| 2026-05-05 10:35 | 22.42303 | 109.36967 | 36118 ft | 471 kts | 196° |
| 2026-05-05 10:35 | 22.35814 | 109.35689 | 36108 ft | 471 kts | 196° |
| 2026-05-05 10:36 | 22.29491 | 109.34663 | 36102 ft | 476 kts | 190° |
| 2026-05-05 10:36 | 22.23781 | 109.34772 | 36101 ft | 485 kts | 178° |
| 2026-05-05 10:37 | 22.17109 | 109.35662 | 36096 ft | 486 kts | 178° |
| 2026-05-05 10:37 | 22.10374 | 109.36499 | 36096 ft | 486 kts | 178° |
| 2026-05-05 10:38 | 22.02512 | 109.37499 | 36092 ft | 485 kts | 178° |
| 2026-05-05 10:38 | 21.96934 | 109.38216 | 36092 ft | 485 kts | 178° |
| 2026-05-05 10:39 | 21.90202 | 109.39078 | 36092 ft | 484 kts | 178° |
| 2026-05-05 10:39 | 21.83511 | 109.39945 | 36093 ft | 485 kts | 178° |
| 2026-05-05 10:40 | 21.76761 | 109.40815 | 36092 ft | 485 kts | 178° |
| 2026-05-05 10:40 | 21.70060 | 109.41678 | 36090 ft | 486 kts | 178° |
| 2026-05-05 10:41 | 21.63336 | 109.42558 | 36091 ft | 486 kts | 176° |
| 2026-05-05 10:41 | 21.56760 | 109.44531 | 36088 ft | 494 kts | 159° |
| 2026-05-05 10:42 | 21.47692 | 109.49989 | 36089 ft | 499 kts | 153° |
| 2026-05-05 10:43 | 21.41687 | 109.53662 | 36090 ft | 498 kts | 153° |
| 2026-05-05 10:43 | 21.35685 | 109.57312 | 36088 ft | 496 kts | 156° |
| 2026-05-05 10:44 | 21.30316 | 109.59750 | 36085 ft | 490 kts | 167° |
| 2026-05-05 10:44 | 21.23671 | 109.60957 | 36091 ft | 484 kts | 177° |
| 2026-05-05 10:45 | 21.15888 | 109.62093 | 36088 ft | 484 kts | 176° |
| 2026-05-05 10:45 | 21.10311 | 109.62921 | 36088 ft | 483 kts | 176° |
| 2026-05-05 10:46 | 21.03636 | 109.63899 | 36088 ft | 484 kts | 176° |
| 2026-05-05 10:46 | 20.96940 | 109.64877 | 36090 ft | 485 kts | 176° |
| 2026-05-05 10:47 | 20.90251 | 109.65852 | 36090 ft | 483 kts | 176° |
| 2026-05-05 10:47 | 20.83567 | 109.66819 | 36077 ft | 483 kts | 176° |
| 2026-05-05 10:47 | 20.80239 | 109.67298 | 35695 ft | 489 kts | 176° |
| 2026-05-05 10:48 | 20.76838 | 109.67787 | 35297 ft | 487 kts | 176° |
| 2026-05-05 10:48 | 20.73494 | 109.68272 | 34900 ft | 483 kts | 176° |
| 2026-05-05 10:48 | 20.70176 | 109.68752 | 34508 ft | 482 kts | 176° |
| 2026-05-05 10:48 | 20.66861 | 109.69230 | 34115 ft | 483 kts | 176° |
| 2026-05-05 10:49 | 20.63512 | 109.69711 | 33719 ft | 485 kts | 176° |
| 2026-05-05 10:49 | 20.60149 | 109.70197 | 33327 ft | 487 kts | 176° |
| 2026-05-05 10:49 | 20.56797 | 109.70680 | 32937 ft | 488 kts | 176° |
| 2026-05-05 10:49 | 20.53432 | 109.71348 | 32559 ft | 493 kts | 169° |
| 2026-05-05 10:50 | 20.50165 | 109.72537 | 32204 ft | 499 kts | 160° |
| 2026-05-05 10:50 | 20.46138 | 109.75045 | 31730 ft | 505 kts | 146° |
| 2026-05-05 10:50 | 20.44306 | 109.76595 | 31492 ft | 505 kts | 143° |
| 2026-05-05 10:50 | 20.41611 | 109.78988 | 31135 ft | 502 kts | 143° |
| 2026-05-05 10:51 | 20.37998 | 109.82118 | 30655 ft | 497 kts | 144° |
| 2026-05-05 10:51 | 20.36206 | 109.83658 | 30418 ft | 495 kts | 144° |
| 2026-05-05 10:51 | 20.33522 | 109.85969 | 30060 ft | 492 kts | 144° |
| 2026-05-05 10:51 | 20.30893 | 109.88236 | 29707 ft | 490 kts | 143° |
| 2026-05-05 10:52 | 20.27370 | 109.91277 | 29231 ft | 487 kts | 144° |
| 2026-05-05 10:52 | 20.25629 | 109.92785 | 28996 ft | 486 kts | 143° |
| 2026-05-05 10:52 | 20.22992 | 109.95065 | 28639 ft | 483 kts | 143° |
| 2026-05-05 10:52 | 20.20400 | 109.97304 | 28296 ft | 480 kts | 143° |
| 2026-05-05 10:53 | 20.17831 | 109.99524 | 27954 ft | 477 kts | 143° |
| 2026-05-05 10:53 | 20.15240 | 110.01761 | 27607 ft | 474 kts | 143° |
| 2026-05-05 10:53 | 20.12682 | 110.03964 | 27262 ft | 472 kts | 143° |
| 2026-05-05 10:53 | 20.10088 | 110.06046 | 26920 ft | 467 kts | 148° |
| 2026-05-05 10:54 | 20.07392 | 110.07793 | 26581 ft | 460 kts | 156° |
| 2026-05-05 10:54 | 20.04419 | 110.08983 | 26235 ft | 450 kts | 169° |
| 2026-05-05 10:54 | 20.01404 | 110.09630 | 25899 ft | 444 kts | 175° |
| 2026-05-05 10:54 | 19.97338 | 110.09956 | 25437 ft | 434 kts | 186° |
| 2026-05-05 10:55 | 19.95368 | 110.09721 | 25210 ft | 428 kts | 195° |
| 2026-05-05 10:55 | 19.92485 | 110.08958 | 24869 ft | 423 kts | 200° |
| 2026-05-05 10:55 | 19.89760 | 110.07902 | 24527 ft | 418 kts | 207° |
| 2026-05-05 10:55 | 19.87111 | 110.06638 | 24184 ft | 416 kts | 208° |
| 2026-05-05 10:56 | 19.84447 | 110.05361 | 23840 ft | 414 kts | 208° |
| 2026-05-05 10:56 | 19.81841 | 110.04128 | 23504 ft | 411 kts | 208° |
| 2026-05-05 10:56 | 19.78388 | 110.02487 | 23057 ft | 407 kts | 208° |
| 2026-05-05 10:56 | 19.76659 | 110.01661 | 22832 ft | 405 kts | 208° |
| 2026-05-05 10:57 | 19.74082 | 110.00429 | 22493 ft | 402 kts | 208° |
| 2026-05-05 10:57 | 19.71557 | 109.99218 | 22168 ft | 400 kts | 208° |
| 2026-05-05 10:57 | 19.69003 | 109.97989 | 21839 ft | 399 kts | 208° |
| 2026-05-05 10:57 | 19.66475 | 109.96774 | 21515 ft | 398 kts | 208° |
| 2026-05-05 10:58 | 19.63963 | 109.95566 | 21192 ft | 397 kts | 208° |
| 2026-05-05 10:58 | 19.60607 | 109.93952 | 20753 ft | 394 kts | 208° |
| 2026-05-05 10:58 | 19.58109 | 109.92753 | 20426 ft | 392 kts | 207° |
| 2026-05-05 10:58 | 19.55638 | 109.91566 | 20104 ft | 391 kts | 208° |
| 2026-05-05 10:59 | 19.53989 | 109.90771 | 19885 ft | 390 kts | 208° |
| 2026-05-05 10:59 | 19.50686 | 109.89185 | 19444 ft | 386 kts | 207° |
| 2026-05-05 10:59 | 19.48243 | 109.88011 | 19121 ft | 385 kts | 207° |
| 2026-05-05 10:59 | 19.45790 | 109.86832 | 18795 ft | 384 kts | 207° |
| 2026-05-05 11:00 | 19.44182 | 109.86061 | 18577 ft | 383 kts | 207° |
| 2026-05-05 11:00 | 19.42281 | 109.85150 | 18317 ft | 382 kts | 207° |
| 2026-05-05 11:00 | 19.39056 | 109.83601 | 17885 ft | 379 kts | 207° |
| 2026-05-05 11:00 | 19.37446 | 109.82829 | 17663 ft | 378 kts | 207° |
| 2026-05-05 11:01 | 19.35035 | 109.81682 | 17332 ft | 376 kts | 207° |
| 2026-05-05 11:01 | 19.32677 | 109.80566 | 17011 ft | 374 kts | 207° |
| 2026-05-05 11:01 | 19.30307 | 109.79443 | 16684 ft | 372 kts | 207° |
| 2026-05-05 11:01 | 19.27966 | 109.78335 | 16356 ft | 370 kts | 207° |
| 2026-05-05 11:02 | 19.25600 | 109.77214 | 16048 ft | 368 kts | 207° |
| 2026-05-05 11:02 | 19.22490 | 109.75723 | 15634 ft | 360 kts | 207° |
| 2026-05-05 11:02 | 19.20235 | 109.74631 | 15325 ft | 352 kts | 207° |
| 2026-05-05 11:02 | 19.18028 | 109.73566 | 15028 ft | 350 kts | 207° |
| 2026-05-05 11:03 | 19.16534 | 109.72845 | 14829 ft | 350 kts | 207° |
| 2026-05-05 11:03 | 19.14336 | 109.71787 | 14527 ft | 343 kts | 207° |
| 2026-05-05 11:03 | 19.12179 | 109.70746 | 14223 ft | 334 kts | 207° |
| 2026-05-05 11:03 | 19.10093 | 109.69741 | 13922 ft | 325 kts | 207° |
| 2026-05-05 11:04 | 19.07395 | 109.68441 | 13525 ft | 318 kts | 207° |
| 2026-05-05 11:04 | 19.05387 | 109.67474 | 13222 ft | 313 kts | 207° |
| 2026-05-05 11:04 | 19.04074 | 109.66840 | 13024 ft | 308 kts | 207° |
| 2026-05-05 11:04 | 19.02155 | 109.65912 | 12725 ft | 301 kts | 206° |
| 2026-05-05 11:05 | 18.99612 | 109.64690 | 12317 ft | 296 kts | 206° |
| 2026-05-05 11:05 | 18.98383 | 109.64099 | 12113 ft | 295 kts | 206° |
| 2026-05-05 11:05 | 18.96507 | 109.63198 | 11803 ft | 294 kts | 206° |
| 2026-05-05 11:05 | 18.94032 | 109.62006 | 11391 ft | 292 kts | 206° |
| 2026-05-05 11:06 | 18.92781 | 109.61408 | 11180 ft | 291 kts | 206° |
| 2026-05-05 11:06 | 18.90961 | 109.60535 | 10872 ft | 289 kts | 206° |
| 2026-05-05 11:06 | 18.89134 | 109.59656 | 10570 ft | 287 kts | 206° |
| 2026-05-05 11:06 | 18.87296 | 109.58772 | 10282 ft | 286 kts | 206° |
| 2026-05-05 11:07 | 18.84903 | 109.57624 | 9899 ft | 284 kts | 206° |
| 2026-05-05 11:07 | 18.83694 | 109.57043 | 9702 ft | 283 kts | 206° |
| 2026-05-05 11:07 | 18.81305 | 109.55896 | 9318 ft | 282 kts | 206° |
| 2026-05-05 11:07 | 18.80127 | 109.55331 | 9143 ft | 280 kts | 206° |
| 2026-05-05 11:08 | 18.77749 | 109.54193 | 8755 ft | 281 kts | 206° |
| 2026-05-05 11:08 | 18.76560 | 109.53624 | 8557 ft | 280 kts | 205° |
| 2026-05-05 11:08 | 18.74786 | 109.52773 | 8285 ft | 278 kts | 205° |
| 2026-05-05 11:08 | 18.72444 | 109.51644 | 7953 ft | 277 kts | 205° |
| 2026-05-05 11:09 | 18.70702 | 109.50811 | 7691 ft | 274 kts | 205° |
| 2026-05-05 11:09 | 18.69541 | 109.50259 | 7524 ft | 268 kts | 205° |
| 2026-05-05 11:09 | 18.67860 | 109.49453 | 7281 ft | 260 kts | 205° |
| 2026-05-05 11:09 | 18.66226 | 109.48668 | 7038 ft | 256 kts | 205° |
| 2026-05-05 11:10 | 18.64615 | 109.47894 | 6797 ft | 252 kts | 205° |
| 2026-05-05 11:10 | 18.63034 | 109.47137 | 6572 ft | 245 kts | 205° |
| 2026-05-05 11:10 | 18.61511 | 109.46407 | 6353 ft | 238 kts | 205° |
| 2026-05-05 11:10 | 18.60019 | 109.45689 | 6135 ft | 232 kts | 205° |
| 2026-05-05 11:11 | 18.58084 | 109.44743 | 5839 ft | 225 kts | 204° |
| 2026-05-05 11:11 | 18.57136 | 109.44286 | 5705 ft | 221 kts | 204° |
| 2026-05-05 11:11 | 18.55742 | 109.43618 | 5490 ft | 221 kts | 204° |
| 2026-05-05 11:11 | 18.54341 | 109.42950 | 5270 ft | 220 kts | 204° |
| 2026-05-05 11:12 | 18.52949 | 109.42284 | 5056 ft | 220 kts | 203° |
| 2026-05-05 11:12 | 18.51082 | 109.41415 | 4767 ft | 219 kts | 199° |
| 2026-05-05 11:12 | 18.50087 | 109.41211 | 4610 ft | 217 kts | 177° |
| 2026-05-05 11:12 | 18.48703 | 109.41755 | 4385 ft | 211 kts | 137° |
| 2026-05-05 11:13 | 18.47819 | 109.43469 | 4232 ft | 196 kts | 106° |
| 2026-05-05 11:13 | 18.47534 | 109.44378 | 4161 ft | 190 kts | 109° |
| 2026-05-05 11:13 | 18.47097 | 109.45659 | 4051 ft | 182 kts | 108° |
| 2026-05-05 11:13 | 18.46690 | 109.46897 | 3967 ft | 180 kts | 108° |
| 2026-05-05 11:14 | 18.46282 | 109.48140 | 3890 ft | 179 kts | 108° |
| 2026-05-05 11:14 | 18.45877 | 109.49378 | 3826 ft | 179 kts | 108° |
| 2026-05-05 11:14 | 18.45335 | 109.51036 | 3727 ft | 179 kts | 108° |
| 2026-05-05 11:14 | 18.45059 | 109.51852 | 3686 ft | 175 kts | 112° |
| 2026-05-05 11:15 | 18.44318 | 109.52879 | 3596 ft | 179 kts | 139° |
| 2026-05-05 11:15 | 18.43345 | 109.53717 | 3514 ft | 179 kts | 137° |
| 2026-05-05 11:15 | 18.42427 | 109.54569 | 3424 ft | 172 kts | 137° |
| 2026-05-05 11:15 | 18.41277 | 109.55630 | 3321 ft | 157 kts | 136° |
| 2026-05-05 11:16 | 18.40742 | 109.56130 | 3278 ft | 149 kts | 137° |
| 2026-05-05 11:16 | 18.39971 | 109.56848 | 3222 ft | 145 kts | 136° |
| 2026-05-05 11:16 | 18.39241 | 109.57526 | 3192 ft | 137 kts | 136° |
| 2026-05-05 11:16 | 18.38537 | 109.58182 | 3137 ft | 130 kts | 135° |
| 2026-05-05 11:17 | 18.37865 | 109.58811 | 3057 ft | 128 kts | 135° |
| 2026-05-05 11:17 | 18.37196 | 109.59433 | 3007 ft | 128 kts | 135° |
| 2026-05-05 11:17 | 18.36526 | 109.60062 | 2949 ft | 129 kts | 135° |
| 2026-05-05 11:17 | 18.35846 | 109.60690 | 2887 ft | 128 kts | 136° |
| 2026-05-05 11:18 | 18.35171 | 109.61317 | 2827 ft | 127 kts | 136° |
| 2026-05-05 11:18 | 18.34400 | 109.61760 | 2739 ft | 131 kts | 167° |
| 2026-05-05 11:18 | 18.33488 | 109.61596 | 2685 ft | 137 kts | 209° |
| 2026-05-05 11:18 | 18.32875 | 109.60846 | 2670 ft | 138 kts | 252° |
| 2026-05-05 11:19 | 18.32728 | 109.59860 | 2701 ft | 138 kts | 263° |
| 2026-05-05 11:19 | 18.32582 | 109.58842 | 2678 ft | 140 kts | 263° |
| 2026-05-05 11:19 | 18.32406 | 109.57519 | 2666 ft | 137 kts | 263° |
| 2026-05-05 11:19 | 18.32319 | 109.56841 | 2632 ft | 139 kts | 263° |
| 2026-05-05 11:20 | 18.32186 | 109.55830 | 2419 ft | 139 kts | 264° |
| 2026-05-05 11:20 | 18.32015 | 109.54494 | 2211 ft | 138 kts | 263° |
| 2026-05-05 11:20 | 18.31930 | 109.53837 | 2110 ft | 138 kts | 263° |
| 2026-05-05 11:20 | 18.31800 | 109.52827 | 1905 ft | 138 kts | 263° |
| 2026-05-05 11:21 | 18.31670 | 109.51839 | 1728 ft | 135 kts | 264° |
| 2026-05-05 11:21 | 18.31499 | 109.50513 | 1500 ft | 139 kts | 263° |
| 2026-05-05 11:21 | 18.31413 | 109.49859 | 1380 ft | 136 kts | 264° |
| 2026-05-05 11:21 | 18.31286 | 109.48881 | 1196 ft | 132 kts | 262° |
| 2026-05-05 11:22 | 18.31162 | 109.47925 | 1049 ft | 135 kts | 263° |
| 2026-05-05 11:22 | 18.30991 | 109.46612 | 801 ft | 132 kts | 264° |
| 2026-05-05 11:22 | 18.30910 | 109.45979 | 685 ft | 131 kts | 262° |
| 2026-05-05 11:22 | 18.30743 | 109.44703 | 467 ft | 131 kts | 264° |
| 2026-05-05 11:23 | 18.30662 | 109.44083 | 359 ft | 131 kts | 263° |
| 2026-05-05 11:23 | 18.30497 | 109.42825 | 141 ft | 129 kts | 264° |
| 2026-05-05 11:23 | 18.30395 | 109.42032 | 104 ft | 79 kts | 262° |
| 2026-05-05 11:23 | 18.30358 | 109.41741 | 105 ft | 42 kts | 263° |
| 2026-05-05 11:24 | 18.30342 | 109.41610 | 102 ft | 0 kts | 261° |
| 2026-05-05 11:24 | 18.30337 | 109.41585 | 102 ft | 8 kts | 260° |
| 2026-05-05 11:24 | 18.30320 | 109.41482 | 101 ft | 19 kts | 260° |
| 2026-05-05 11:24 | 18.30313 | 109.41382 | 99 ft | 16 kts | 266° |
| 2026-05-05 11:25 | 18.30383 | 109.41311 | 100 ft | 14 kts | 349° |
| 2026-05-05 11:25 | 18.30467 | 109.41235 | 102 ft | 17 kts | 264° |
| 2026-05-05 11:25 | 18.30465 | 109.41167 | 101 ft | 15 kts | 294° |
| 2026-05-05 11:25 | 18.30608 | 109.41125 | 105 ft | 17 kts | 352° |
| 2026-05-05 11:26 | 18.30685 | 109.41113 | 108 ft | 15 kts | 353° |
| 2026-05-05 11:26 | 18.30784 | 109.41067 | 111 ft | 11 kts | 332° |
| 2026-05-05 11:26 | 18.30841 | 109.41055 | 114 ft | 13 kts | 353° |
| 2026-05-05 11:26 | 18.30859 | 109.41053 | 115 ft | 0 kts | 353° |